sensor_id;sensor_type;location;lat;lon;timestamp;P1;durP1;ratioP1;P2;durP2;ratioP2
8909;SDS011;4490;49.072;8.804;2023-09-19T00:00:29;3.10;;;1.93;;
8909;SDS011;4490;49.072;8.804;2023-09-19T00:02:56;2.27;;;1.70;;
8909;SDS011;4490;49.072;8.804;2023-09-19T00:05:22;5.30;;;2.00;;
8909;SDS011;4490;49.072;8.804;2023-09-19T00:07:52;3.83;;;2.00;;
8909;SDS011;4490;49.072;8.804;2023-09-19T00:10:24;3.70;;;1.80;;
8909;SDS011;4490;49.072;8.804;2023-09-19T00:12:56;4.57;;;1.87;;
8909;SDS011;4490;49.072;8.804;2023-09-19T00:15:25;3.60;;;2.10;;
8909;SDS011;4490;49.072;8.804;2023-09-19T00:17:53;3.67;;;2.00;;
8909;SDS011;4490;49.072;8.804;2023-09-19T00:20:20;5.73;;;2.03;;
8909;SDS011;4490;49.072;8.804;2023-09-19T00:22:48;5.77;;;2.03;;
8909;SDS011;4490;49.072;8.804;2023-09-19T00:25:18;4.43;;;2.13;;
8909;SDS011;4490;49.072;8.804;2023-09-19T00:27:45;4.77;;;2.30;;
8909;SDS011;4490;49.072;8.804;2023-09-19T00:30:12;4.97;;;2.40;;
8909;SDS011;4490;49.072;8.804;2023-09-19T00:32:44;3.80;;;2.10;;
8909;SDS011;4490;49.072;8.804;2023-09-19T00:35:12;2.40;;;1.93;;
8909;SDS011;4490;49.072;8.804;2023-09-19T00:37:41;3.97;;;2.00;;
8909;SDS011;4490;49.072;8.804;2023-09-19T00:40:07;3.90;;;2.10;;
8909;SDS011;4490;49.072;8.804;2023-09-19T00:42:40;4.07;;;1.83;;
8909;SDS011;4490;49.072;8.804;2023-09-19T00:45:12;3.33;;;1.80;;
8909;SDS011;4490;49.072;8.804;2023-09-19T00:47:40;3.23;;;2.00;;
8909;SDS011;4490;49.072;8.804;2023-09-19T00:50:14;2.70;;;1.90;;
8909;SDS011;4490;49.072;8.804;2023-09-19T00:52:42;2.53;;;2.07;;
8909;SDS011;4490;49.072;8.804;2023-09-19T00:55:09;6.97;;;1.87;;
8909;SDS011;4490;49.072;8.804;2023-09-19T00:57:36;2.53;;;1.87;;
8909;SDS011;4490;49.072;8.804;2023-09-19T01:00:03;5.53;;;1.80;;
8909;SDS011;4490;49.072;8.804;2023-09-19T01:02:36;2.43;;;1.70;;
8909;SDS011;4490;49.072;8.804;2023-09-19T01:05:02;2.93;;;1.80;;
8909;SDS011;4490;49.072;8.804;2023-09-19T01:07:29;2.80;;;1.70;;
8909;SDS011;4490;49.072;8.804;2023-09-19T01:09:56;5.33;;;1.90;;
8909;SDS011;4490;49.072;8.804;2023-09-19T01:12:34;2.63;;;1.80;;
8909;SDS011;4490;49.072;8.804;2023-09-19T01:18:11;2.77;;;1.80;;
8909;SDS011;4490;49.072;8.804;2023-09-19T01:29:23;3.70;;;1.60;;
8909;SDS011;4490;49.072;8.804;2023-09-19T01:31:54;2.63;;;1.93;;
8909;SDS011;4490;49.072;8.804;2023-09-19T01:34:28;2.13;;;1.67;;
8909;SDS011;4490;49.072;8.804;2023-09-19T01:37:12;1.93;;;1.73;;
8909;SDS011;4490;49.072;8.804;2023-09-19T01:39:59;6.80;;;1.90;;
8909;SDS011;4490;49.072;8.804;2023-09-19T01:51:10;2.90;;;1.60;;
8909;SDS011;4490;49.072;8.804;2023-09-19T01:56:18;3.33;;;1.60;;
8909;SDS011;4490;49.072;8.804;2023-09-19T01:58:53;3.43;;;1.60;;
8909;SDS011;4490;49.072;8.804;2023-09-19T02:01:24;1.90;;;1.70;;
8909;SDS011;4490;49.072;8.804;2023-09-19T02:03:51;2.70;;;1.53;;
8909;SDS011;4490;49.072;8.804;2023-09-19T02:06:18;2.33;;;1.67;;
8909;SDS011;4490;49.072;8.804;2023-09-19T02:08:44;3.20;;;1.70;;
8909;SDS011;4490;49.072;8.804;2023-09-19T02:11:10;3.07;;;1.60;;
8909;SDS011;4490;49.072;8.804;2023-09-19T02:13:36;2.00;;;1.80;;
8909;SDS011;4490;49.072;8.804;2023-09-19T02:16:02;2.07;;;1.80;;
8909;SDS011;4490;49.072;8.804;2023-09-19T02:18:29;2.17;;;1.50;;
8909;SDS011;4490;49.072;8.804;2023-09-19T02:20:55;4.23;;;2.07;;
8909;SDS011;4490;49.072;8.804;2023-09-19T02:23:23;4.03;;;1.80;;
8909;SDS011;4490;49.072;8.804;2023-09-19T02:25:53;3.53;;;1.70;;
8909;SDS011;4490;49.072;8.804;2023-09-19T02:28:19;3.33;;;1.47;;
8909;SDS011;4490;49.072;8.804;2023-09-19T02:30:48;1.60;;;1.50;;
8909;SDS011;4490;49.072;8.804;2023-09-19T02:33:15;2.60;;;1.70;;
8909;SDS011;4490;49.072;8.804;2023-09-19T02:35:42;2.27;;;1.80;;
8909;SDS011;4490;49.072;8.804;2023-09-19T02:38:07;2.23;;;1.60;;
8909;SDS011;4490;49.072;8.804;2023-09-19T02:40:36;2.47;;;1.73;;
8909;SDS011;4490;49.072;8.804;2023-09-19T02:43:02;3.70;;;1.53;;
8909;SDS011;4490;49.072;8.804;2023-09-19T02:45:28;2.63;;;1.63;;
8909;SDS011;4490;49.072;8.804;2023-09-19T02:47:55;2.80;;;1.73;;
8909;SDS011;4490;49.072;8.804;2023-09-19T02:50:26;1.53;;;1.43;;
8909;SDS011;4490;49.072;8.804;2023-09-19T02:52:52;3.13;;;1.70;;
8909;SDS011;4490;49.072;8.804;2023-09-19T02:55:18;2.57;;;1.60;;
8909;SDS011;4490;49.072;8.804;2023-09-19T02:57:47;3.37;;;1.50;;
8909;SDS011;4490;49.072;8.804;2023-09-19T03:00:14;2.87;;;2.03;;
8909;SDS011;4490;49.072;8.804;2023-09-19T03:02:41;2.40;;;1.73;;
8909;SDS011;4490;49.072;8.804;2023-09-19T03:05:07;2.87;;;1.77;;
8909;SDS011;4490;49.072;8.804;2023-09-19T03:07:36;1.60;;;1.50;;
8909;SDS011;4490;49.072;8.804;2023-09-19T03:10:03;1.67;;;1.57;;
8909;SDS011;4490;49.072;8.804;2023-09-19T03:12:30;2.77;;;1.60;;
8909;SDS011;4490;49.072;8.804;2023-09-19T03:14:57;2.93;;;2.00;;
8909;SDS011;4490;49.072;8.804;2023-09-19T03:17:22;4.73;;;1.87;;
8909;SDS011;4490;49.072;8.804;2023-09-19T03:19:48;1.63;;;1.53;;
8909;SDS011;4490;49.072;8.804;2023-09-19T03:22:14;2.53;;;1.60;;
8909;SDS011;4490;49.072;8.804;2023-09-19T03:24:40;3.17;;;1.73;;
8909;SDS011;4490;49.072;8.804;2023-09-19T03:27:08;3.27;;;2.10;;
8909;SDS011;4490;49.072;8.804;2023-09-19T03:29:35;3.13;;;1.90;;
8909;SDS011;4490;49.072;8.804;2023-09-19T03:32:00;2.67;;;1.70;;
8909;SDS011;4490;49.072;8.804;2023-09-19T03:34:26;3.77;;;1.70;;
8909;SDS011;4490;49.072;8.804;2023-09-19T03:36:52;1.80;;;1.70;;
8909;SDS011;4490;49.072;8.804;2023-09-19T03:39:18;3.27;;;1.70;;
8909;SDS011;4490;49.072;8.804;2023-09-19T03:41:43;2.20;;;1.70;;
8909;SDS011;4490;49.072;8.804;2023-09-19T03:44:10;2.33;;;2.10;;
8909;SDS011;4490;49.072;8.804;2023-09-19T03:46:35;3.77;;;1.80;;
8909;SDS011;4490;49.072;8.804;2023-09-19T03:49:01;3.57;;;1.90;;
8909;SDS011;4490;49.072;8.804;2023-09-19T03:51:27;2.90;;;2.03;;
8909;SDS011;4490;49.072;8.804;2023-09-19T03:53:53;2.17;;;1.80;;
8909;SDS011;4490;49.072;8.804;2023-09-19T03:56:19;6.97;;;2.00;;
8909;SDS011;4490;49.072;8.804;2023-09-19T03:58:44;3.93;;;1.83;;
8909;SDS011;4490;49.072;8.804;2023-09-19T04:01:10;3.67;;;1.90;;
8909;SDS011;4490;49.072;8.804;2023-09-19T04:03:35;3.97;;;2.03;;
8909;SDS011;4490;49.072;8.804;2023-09-19T04:06:14;2.27;;;1.73;;
8909;SDS011;4490;49.072;8.804;2023-09-19T04:08:41;2.40;;;1.90;;
8909;SDS011;4490;49.072;8.804;2023-09-19T04:11:07;3.50;;;2.00;;
8909;SDS011;4490;49.072;8.804;2023-09-19T04:13:33;3.30;;;2.17;;
8909;SDS011;4490;49.072;8.804;2023-09-19T04:15:58;2.97;;;2.00;;
8909;SDS011;4490;49.072;8.804;2023-09-19T04:18:24;7.70;;;2.17;;
8909;SDS011;4490;49.072;8.804;2023-09-19T04:20:50;2.37;;;2.17;;
8909;SDS011;4490;49.072;8.804;2023-09-19T04:23:16;4.33;;;2.07;;
8909;SDS011;4490;49.072;8.804;2023-09-19T04:25:47;3.10;;;1.87;;
8909;SDS011;4490;49.072;8.804;2023-09-19T04:28:13;3.37;;;2.37;;
8909;SDS011;4490;49.072;8.804;2023-09-19T04:30:40;3.57;;;2.13;;
8909;SDS011;4490;49.072;8.804;2023-09-19T04:33:06;2.93;;;1.93;;
8909;SDS011;4490;49.072;8.804;2023-09-19T04:35:31;2.57;;;2.07;;
8909;SDS011;4490;49.072;8.804;2023-09-19T04:37:57;3.13;;;2.20;;
8909;SDS011;4490;49.072;8.804;2023-09-19T04:40:23;4.23;;;2.10;;
8909;SDS011;4490;49.072;8.804;2023-09-19T04:42:56;2.23;;;1.80;;
8909;SDS011;4490;49.072;8.804;2023-09-19T04:45:25;5.40;;;1.90;;
8909;SDS011;4490;49.072;8.804;2023-09-19T04:47:51;3.10;;;2.37;;
8909;SDS011;4490;49.072;8.804;2023-09-19T04:50:18;3.53;;;2.23;;
8909;SDS011;4490;49.072;8.804;2023-09-19T04:52:44;3.60;;;2.50;;
8909;SDS011;4490;49.072;8.804;2023-09-19T04:55:11;3.90;;;2.03;;
8909;SDS011;4490;49.072;8.804;2023-09-19T04:57:44;2.57;;;2.20;;
8909;SDS011;4490;49.072;8.804;2023-09-19T05:00:11;3.33;;;2.30;;
8909;SDS011;4490;49.072;8.804;2023-09-19T05:02:39;4.97;;;2.60;;
8909;SDS011;4490;49.072;8.804;2023-09-19T05:05:07;2.97;;;2.40;;
8909;SDS011;4490;49.072;8.804;2023-09-19T05:07:33;5.70;;;2.70;;
8909;SDS011;4490;49.072;8.804;2023-09-19T05:09:59;4.30;;;2.73;;
8909;SDS011;4490;49.072;8.804;2023-09-19T05:12:26;4.23;;;2.90;;
8909;SDS011;4490;49.072;8.804;2023-09-19T05:14:52;2.70;;;2.50;;
8909;SDS011;4490;49.072;8.804;2023-09-19T05:17:18;3.93;;;2.80;;
8909;SDS011;4490;49.072;8.804;2023-09-19T05:19:44;4.77;;;2.50;;
8909;SDS011;4490;49.072;8.804;2023-09-19T05:22:11;3.67;;;2.80;;
8909;SDS011;4490;49.072;8.804;2023-09-19T05:24:37;4.87;;;3.10;;
8909;SDS011;4490;49.072;8.804;2023-09-19T05:27:04;4.37;;;3.03;;
8909;SDS011;4490;49.072;8.804;2023-09-19T05:29:32;4.93;;;3.80;;
8909;SDS011;4490;49.072;8.804;2023-09-19T05:31:58;4.60;;;3.80;;
8909;SDS011;4490;49.072;8.804;2023-09-19T05:34:24;5.63;;;3.93;;
8909;SDS011;4490;49.072;8.804;2023-09-19T05:36:55;4.63;;;4.23;;
8909;SDS011;4490;49.072;8.804;2023-09-19T05:39:21;4.77;;;4.33;;
8909;SDS011;4490;49.072;8.804;2023-09-19T05:41:47;7.90;;;4.10;;
8909;SDS011;4490;49.072;8.804;2023-09-19T05:44:13;4.80;;;3.77;;
8909;SDS011;4490;49.072;8.804;2023-09-19T05:46:41;4.83;;;3.30;;
8909;SDS011;4490;49.072;8.804;2023-09-19T05:49:07;5.20;;;3.20;;
8909;SDS011;4490;49.072;8.804;2023-09-19T05:51:33;5.20;;;2.83;;
8909;SDS011;4490;49.072;8.804;2023-09-19T05:54:00;4.03;;;3.30;;
8909;SDS011;4490;49.072;8.804;2023-09-19T05:56:25;3.83;;;2.70;;
8909;SDS011;4490;49.072;8.804;2023-09-19T05:58:52;4.50;;;2.70;;
8909;SDS011;4490;49.072;8.804;2023-09-19T06:01:18;5.93;;;2.70;;
8909;SDS011;4490;49.072;8.804;2023-09-19T06:03:44;3.90;;;2.60;;
8909;SDS011;4490;49.072;8.804;2023-09-19T06:06:09;3.87;;;2.40;;
8909;SDS011;4490;49.072;8.804;2023-09-19T06:08:35;4.73;;;2.80;;
8909;SDS011;4490;49.072;8.804;2023-09-19T06:11:01;5.33;;;2.17;;
8909;SDS011;4490;49.072;8.804;2023-09-19T06:13:30;3.50;;;2.30;;
8909;SDS011;4490;49.072;8.804;2023-09-19T06:15:58;4.67;;;2.40;;
8909;SDS011;4490;49.072;8.804;2023-09-19T06:18:28;5.73;;;2.37;;
8909;SDS011;4490;49.072;8.804;2023-09-19T06:20:54;3.67;;;2.07;;
8909;SDS011;4490;49.072;8.804;2023-09-19T06:23:20;2.60;;;2.40;;
8909;SDS011;4490;49.072;8.804;2023-09-19T06:25:46;5.57;;;2.30;;
8909;SDS011;4490;49.072;8.804;2023-09-19T06:28:12;4.97;;;2.20;;
8909;SDS011;4490;49.072;8.804;2023-09-19T06:30:38;3.47;;;2.60;;
8909;SDS011;4490;49.072;8.804;2023-09-19T06:33:07;4.07;;;2.30;;
8909;SDS011;4490;49.072;8.804;2023-09-19T06:35:33;3.17;;;2.13;;
8909;SDS011;4490;49.072;8.804;2023-09-19T06:37:59;3.97;;;2.20;;
8909;SDS011;4490;49.072;8.804;2023-09-19T06:40:28;6.40;;;2.70;;
8909;SDS011;4490;49.072;8.804;2023-09-19T06:42:53;2.93;;;2.17;;
8909;SDS011;4490;49.072;8.804;2023-09-19T06:45:21;4.83;;;2.40;;
8909;SDS011;4490;49.072;8.804;2023-09-19T06:47:47;4.63;;;2.30;;
8909;SDS011;4490;49.072;8.804;2023-09-19T06:50:18;4.60;;;2.23;;
8909;SDS011;4490;49.072;8.804;2023-09-19T06:52:47;3.57;;;2.40;;
8909;SDS011;4490;49.072;8.804;2023-09-19T06:55:15;3.53;;;2.03;;
8909;SDS011;4490;49.072;8.804;2023-09-19T06:57:44;4.80;;;2.37;;
8909;SDS011;4490;49.072;8.804;2023-09-19T07:00:10;6.00;;;2.17;;
8909;SDS011;4490;49.072;8.804;2023-09-19T07:02:58;3.80;;;2.40;;
8909;SDS011;4490;49.072;8.804;2023-09-19T07:05:30;3.20;;;2.30;;
8909;SDS011;4490;49.072;8.804;2023-09-19T07:07:59;4.77;;;2.13;;
8909;SDS011;4490;49.072;8.804;2023-09-19T07:10:26;4.73;;;2.03;;
8909;SDS011;4490;49.072;8.804;2023-09-19T07:12:59;4.87;;;2.10;;
8909;SDS011;4490;49.072;8.804;2023-09-19T07:15:26;3.50;;;2.10;;
8909;SDS011;4490;49.072;8.804;2023-09-19T07:17:53;4.67;;;2.00;;
8909;SDS011;4490;49.072;8.804;2023-09-19T07:20:21;2.50;;;2.00;;
8909;SDS011;4490;49.072;8.804;2023-09-19T07:22:48;4.13;;;2.00;;
8909;SDS011;4490;49.072;8.804;2023-09-19T07:25:15;4.10;;;2.30;;
8909;SDS011;4490;49.072;8.804;2023-09-19T07:27:41;3.37;;;2.03;;
8909;SDS011;4490;49.072;8.804;2023-09-19T07:30:07;7.47;;;2.13;;
8909;SDS011;4490;49.072;8.804;2023-09-19T07:32:34;4.13;;;1.77;;
8909;SDS011;4490;49.072;8.804;2023-09-19T07:35:03;4.13;;;1.90;;
8909;SDS011;4490;49.072;8.804;2023-09-19T07:37:30;4.53;;;1.77;;
8909;SDS011;4490;49.072;8.804;2023-09-19T07:39:58;2.67;;;1.90;;
8909;SDS011;4490;49.072;8.804;2023-09-19T07:42:25;3.17;;;2.20;;
8909;SDS011;4490;49.072;8.804;2023-09-19T07:44:52;4.97;;;2.10;;
8909;SDS011;4490;49.072;8.804;2023-09-19T07:47:19;3.40;;;2.00;;
8909;SDS011;4490;49.072;8.804;2023-09-19T07:49:46;2.95;;;2.17;;
8909;SDS011;4490;49.072;8.804;2023-09-19T07:52:13;4.27;;;2.00;;
8909;SDS011;4490;49.072;8.804;2023-09-19T07:54:38;2.28;;;2.08;;
8909;SDS011;4490;49.072;8.804;2023-09-19T07:57:06;3.00;;;2.03;;
8909;SDS011;4490;49.072;8.804;2023-09-19T07:59:32;4.85;;;2.30;;
8909;SDS011;4490;49.072;8.804;2023-09-19T08:01:58;4.80;;;1.98;;
8909;SDS011;4490;49.072;8.804;2023-09-19T08:04:23;3.97;;;2.13;;
8909;SDS011;4490;49.072;8.804;2023-09-19T08:06:51;2.80;;;2.00;;
8909;SDS011;4490;49.072;8.804;2023-09-19T08:09:17;2.75;;;2.10;;
8909;SDS011;4490;49.072;8.804;2023-09-19T08:11:46;3.15;;;1.80;;
8909;SDS011;4490;49.072;8.804;2023-09-19T08:14:13;3.45;;;1.95;;
8909;SDS011;4490;49.072;8.804;2023-09-19T08:16:39;3.60;;;2.17;;
8909;SDS011;4490;49.072;8.804;2023-09-19T08:19:05;6.57;;;1.95;;
8909;SDS011;4490;49.072;8.804;2023-09-19T08:21:31;3.53;;;2.00;;
8909;SDS011;4490;49.072;8.804;2023-09-19T08:23:57;3.22;;;1.95;;
8909;SDS011;4490;49.072;8.804;2023-09-19T08:26:22;4.00;;;1.98;;
8909;SDS011;4490;49.072;8.804;2023-09-19T08:28:49;7.20;;;2.20;;
8909;SDS011;4490;49.072;8.804;2023-09-19T08:31:16;5.05;;;2.30;;
8909;SDS011;4490;49.072;8.804;2023-09-19T08:33:43;3.05;;;1.90;;
8909;SDS011;4490;49.072;8.804;2023-09-19T08:36:15;3.60;;;2.13;;
8909;SDS011;4490;49.072;8.804;2023-09-19T08:38:40;1.83;;;1.63;;
8909;SDS011;4490;49.072;8.804;2023-09-19T08:41:06;3.28;;;2.08;;
8909;SDS011;4490;49.072;8.804;2023-09-19T08:43:33;5.45;;;2.10;;
8909;SDS011;4490;49.072;8.804;2023-09-19T08:48:45;3.75;;;1.90;;
8909;SDS011;4490;49.072;8.804;2023-09-19T08:56:48;2.65;;;1.80;;
8909;SDS011;4490;49.072;8.804;2023-09-19T08:59:15;3.60;;;1.95;;
8909;SDS011;4490;49.072;8.804;2023-09-19T09:01:42;3.42;;;2.20;;
8909;SDS011;4490;49.072;8.804;2023-09-19T09:04:08;3.83;;;1.75;;
8909;SDS011;4490;49.072;8.804;2023-09-19T09:06:37;4.38;;;2.10;;
8909;SDS011;4490;49.072;8.804;2023-09-19T09:09:04;4.95;;;2.30;;
8909;SDS011;4490;49.072;8.804;2023-09-19T09:11:30;3.60;;;1.98;;
8909;SDS011;4490;49.072;8.804;2023-09-19T09:13:58;6.45;;;1.90;;
8909;SDS011;4490;49.072;8.804;2023-09-19T09:16:24;3.00;;;1.77;;
8909;SDS011;4490;49.072;8.804;2023-09-19T09:18:51;4.32;;;1.90;;
8909;SDS011;4490;49.072;8.804;2023-09-19T09:21:19;2.90;;;2.00;;
8909;SDS011;4490;49.072;8.804;2023-09-19T09:23:47;2.38;;;2.00;;
8909;SDS011;4490;49.072;8.804;2023-09-19T09:26:14;3.70;;;1.98;;
8909;SDS011;4490;49.072;8.804;2023-09-19T09:28:45;1.88;;;1.75;;
8909;SDS011;4490;49.072;8.804;2023-09-19T09:31:22;3.35;;;1.90;;
8909;SDS011;4490;49.072;8.804;2023-09-19T09:33:55;3.03;;;1.90;;
8909;SDS011;4490;49.072;8.804;2023-09-19T09:36:35;2.53;;;1.80;;
8909;SDS011;4490;49.072;8.804;2023-09-19T09:39:06;2.90;;;2.00;;
8909;SDS011;4490;49.072;8.804;2023-09-19T09:41:43;3.53;;;1.80;;
8909;SDS011;4490;49.072;8.804;2023-09-19T09:44:14;2.33;;;1.40;;
8909;SDS011;4490;49.072;8.804;2023-09-19T09:46:43;6.75;;;1.80;;
8909;SDS011;4490;49.072;8.804;2023-09-19T09:49:21;2.85;;;1.80;;
8909;SDS011;4490;49.072;8.804;2023-09-19T09:54:32;3.55;;;1.58;;
8909;SDS011;4490;49.072;8.804;2023-09-19T09:57:02;3.42;;;1.98;;
8909;SDS011;4490;49.072;8.804;2023-09-19T10:02:15;4.07;;;1.98;;
8909;SDS011;4490;49.072;8.804;2023-09-19T10:04:47;1.75;;;1.60;;
8909;SDS011;4490;49.072;8.804;2023-09-19T10:07:25;5.25;;;1.75;;
8909;SDS011;4490;49.072;8.804;2023-09-19T10:09:57;4.25;;;1.80;;
8909;SDS011;4490;49.072;8.804;2023-09-19T10:12:31;5.50;;;1.75;;
8909;SDS011;4490;49.072;8.804;2023-09-19T10:14:58;3.15;;;1.70;;
8909;SDS011;4490;49.072;8.804;2023-09-19T10:17:27;1.65;;;1.50;;
8909;SDS011;4490;49.072;8.804;2023-09-19T10:19:56;2.67;;;1.60;;
8909;SDS011;4490;49.072;8.804;2023-09-19T10:22:24;2.75;;;1.85;;
8909;SDS011;4490;49.072;8.804;2023-09-19T10:24:53;2.70;;;1.55;;
8909;SDS011;4490;49.072;8.804;2023-09-19T10:27:19;2.22;;;1.75;;
8909;SDS011;4490;49.072;8.804;2023-09-19T10:29:45;3.15;;;1.70;;
8909;SDS011;4490;49.072;8.804;2023-09-19T10:32:16;3.33;;;1.80;;
8909;SDS011;4490;49.072;8.804;2023-09-19T10:34:44;1.92;;;1.60;;
8909;SDS011;4490;49.072;8.804;2023-09-19T10:37:12;4.20;;;1.80;;
8909;SDS011;4490;49.072;8.804;2023-09-19T10:39:39;2.47;;;1.70;;
8909;SDS011;4490;49.072;8.804;2023-09-19T10:42:05;2.55;;;1.60;;
8909;SDS011;4490;49.072;8.804;2023-09-19T10:44:34;3.67;;;1.60;;
8909;SDS011;4490;49.072;8.804;2023-09-19T10:47:07;3.38;;;1.50;;
8909;SDS011;4490;49.072;8.804;2023-09-19T10:49:33;2.90;;;1.70;;
8909;SDS011;4490;49.072;8.804;2023-09-19T10:51:59;6.57;;;1.90;;
8909;SDS011;4490;49.072;8.804;2023-09-19T10:54:28;1.95;;;1.48;;
8909;SDS011;4490;49.072;8.804;2023-09-19T10:56:57;3.53;;;1.70;;
8909;SDS011;4490;49.072;8.804;2023-09-19T10:59:24;2.28;;;1.75;;
8909;SDS011;4490;49.072;8.804;2023-09-19T11:01:54;1.90;;;1.70;;
8909;SDS011;4490;49.072;8.804;2023-09-19T11:07:04;2.80;;;1.77;;
8909;SDS011;4490;49.072;8.804;2023-09-19T11:09:52;2.75;;;1.77;;
8909;SDS011;4490;49.072;8.804;2023-09-19T11:14:54;3.65;;;1.90;;
8909;SDS011;4490;49.072;8.804;2023-09-19T11:30:47;3.53;;;1.75;;
8909;SDS011;4490;49.072;8.804;2023-09-19T11:33:17;2.33;;;1.80;;
8909;SDS011;4490;49.072;8.804;2023-09-19T11:43:45;1.58;;;1.48;;
8909;SDS011;4490;49.072;8.804;2023-09-19T11:46:20;2.65;;;1.80;;
8909;SDS011;4490;49.072;8.804;2023-09-19T11:48:49;1.98;;;1.77;;
8909;SDS011;4490;49.072;8.804;2023-09-19T11:51:19;2.10;;;1.70;;
8909;SDS011;4490;49.072;8.804;2023-09-19T11:53:52;2.17;;;1.70;;
8909;SDS011;4490;49.072;8.804;2023-09-19T11:56:23;2.53;;;1.75;;
8909;SDS011;4490;49.072;8.804;2023-09-19T11:58:52;3.35;;;1.60;;
8909;SDS011;4490;49.072;8.804;2023-09-19T12:01:29;2.00;;;1.55;;
8909;SDS011;4490;49.072;8.804;2023-09-19T12:03:59;1.73;;;1.55;;
8909;SDS011;4490;49.072;8.804;2023-09-19T12:06:26;2.95;;;1.70;;
8909;SDS011;4490;49.072;8.804;2023-09-19T12:08:54;4.03;;;1.90;;
8909;SDS011;4490;49.072;8.804;2023-09-19T12:11:21;2.22;;;1.90;;
8909;SDS011;4490;49.072;8.804;2023-09-19T12:13:48;4.35;;;1.98;;
8909;SDS011;4490;49.072;8.804;2023-09-19T12:16:18;3.05;;;1.70;;
8909;SDS011;4490;49.072;8.804;2023-09-19T12:18:48;4.38;;;1.98;;
8909;SDS011;4490;49.072;8.804;2023-09-19T12:21:28;3.83;;;2.20;;
8909;SDS011;4490;49.072;8.804;2023-09-19T12:26:29;2.20;;;1.70;;
8909;SDS011;4490;49.072;8.804;2023-09-19T12:29:02;3.63;;;1.83;;
8909;SDS011;4490;49.072;8.804;2023-09-19T12:31:30;2.60;;;1.80;;
8909;SDS011;4490;49.072;8.804;2023-09-19T12:34:01;2.67;;;1.80;;
8909;SDS011;4490;49.072;8.804;2023-09-19T12:36:27;7.18;;;1.90;;
8909;SDS011;4490;49.072;8.804;2023-09-19T12:38:58;3.40;;;2.08;;
8909;SDS011;4490;49.072;8.804;2023-09-19T12:41:24;3.42;;;1.80;;
8909;SDS011;4490;49.072;8.804;2023-09-19T12:43:51;4.07;;;1.90;;
8909;SDS011;4490;49.072;8.804;2023-09-19T12:46:23;2.25;;;1.70;;
8909;SDS011;4490;49.072;8.804;2023-09-19T12:49:14;3.72;;;2.05;;
8909;SDS011;4490;49.072;8.804;2023-09-19T12:51:48;1.90;;;1.80;;
8909;SDS011;4490;49.072;8.804;2023-09-19T12:54:14;2.05;;;1.85;;
8909;SDS011;4490;49.072;8.804;2023-09-19T12:56:42;4.20;;;1.60;;
8909;SDS011;4490;49.072;8.804;2023-09-19T12:59:14;2.28;;;1.88;;
8909;SDS011;4490;49.072;8.804;2023-09-19T13:01:40;2.40;;;1.60;;
8909;SDS011;4490;49.072;8.804;2023-09-19T13:04:21;4.45;;;2.10;;
8909;SDS011;4490;49.072;8.804;2023-09-19T13:06:57;3.40;;;1.80;;
8909;SDS011;4490;49.072;8.804;2023-09-19T13:09:26;2.45;;;1.70;;
8909;SDS011;4490;49.072;8.804;2023-09-19T13:12:03;3.97;;;1.77;;
8909;SDS011;4490;49.072;8.804;2023-09-19T13:14:31;4.30;;;1.83;;
8909;SDS011;4490;49.072;8.804;2023-09-19T13:19:44;2.47;;;1.77;;
8909;SDS011;4490;49.072;8.804;2023-09-19T13:25:15;2.55;;;1.85;;
8909;SDS011;4490;49.072;8.804;2023-09-19T13:27:45;2.35;;;1.90;;
8909;SDS011;4490;49.072;8.804;2023-09-19T13:30:19;2.42;;;1.67;;
8909;SDS011;4490;49.072;8.804;2023-09-19T13:32:46;4.15;;;1.98;;
8909;SDS011;4490;49.072;8.804;2023-09-19T13:35:12;2.83;;;1.65;;
8909;SDS011;4490;49.072;8.804;2023-09-19T13:37:39;2.38;;;1.70;;
8909;SDS011;4490;49.072;8.804;2023-09-19T13:40:12;2.53;;;1.80;;
8909;SDS011;4490;49.072;8.804;2023-09-19T13:42:39;2.65;;;1.98;;
8909;SDS011;4490;49.072;8.804;2023-09-19T13:45:06;2.05;;;1.65;;
8909;SDS011;4490;49.072;8.804;2023-09-19T13:47:32;2.10;;;1.85;;
8909;SDS011;4490;49.072;8.804;2023-09-19T13:49:59;2.22;;;1.90;;
8909;SDS011;4490;49.072;8.804;2023-09-19T13:52:25;2.35;;;1.73;;
8909;SDS011;4490;49.072;8.804;2023-09-19T13:54:53;2.13;;;1.95;;
8909;SDS011;4490;49.072;8.804;2023-09-19T13:57:21;3.35;;;2.00;;
8909;SDS011;4490;49.072;8.804;2023-09-19T13:59:47;2.00;;;1.77;;
8909;SDS011;4490;49.072;8.804;2023-09-19T14:02:13;2.30;;;1.83;;
8909;SDS011;4490;49.072;8.804;2023-09-19T14:04:39;1.80;;;1.65;;
8909;SDS011;4490;49.072;8.804;2023-09-19T14:07:05;2.83;;;1.95;;
8909;SDS011;4490;49.072;8.804;2023-09-19T14:09:32;1.42;;;1.33;;
8909;SDS011;4490;49.072;8.804;2023-09-19T14:11:58;3.50;;;1.90;;
8909;SDS011;4490;49.072;8.804;2023-09-19T14:14:24;2.78;;;1.85;;
8909;SDS011;4490;49.072;8.804;2023-09-19T14:16:50;2.72;;;1.92;;
8909;SDS011;4490;49.072;8.804;2023-09-19T14:19:20;4.80;;;1.77;;
8909;SDS011;4490;49.072;8.804;2023-09-19T14:21:46;2.58;;;1.75;;
8909;SDS011;4490;49.072;8.804;2023-09-19T14:24:16;2.55;;;1.73;;
8909;SDS011;4490;49.072;8.804;2023-09-19T14:26:42;3.33;;;1.60;;
8909;SDS011;4490;49.072;8.804;2023-09-19T14:29:08;2.22;;;1.70;;
8909;SDS011;4490;49.072;8.804;2023-09-19T14:31:36;2.22;;;1.70;;
8909;SDS011;4490;49.072;8.804;2023-09-19T14:34:04;2.85;;;1.63;;
8909;SDS011;4490;49.072;8.804;2023-09-19T14:36:31;2.75;;;1.80;;
8909;SDS011;4490;49.072;8.804;2023-09-19T14:38:58;1.92;;;1.83;;
8909;SDS011;4490;49.072;8.804;2023-09-19T14:41:24;1.92;;;1.60;;
8909;SDS011;4490;49.072;8.804;2023-09-19T14:43:51;1.75;;;1.52;;
8909;SDS011;4490;49.072;8.804;2023-09-19T14:46:17;3.90;;;1.70;;
8909;SDS011;4490;49.072;8.804;2023-09-19T14:48:44;2.22;;;1.75;;
8909;SDS011;4490;49.072;8.804;2023-09-19T14:51:12;2.40;;;2.03;;
8909;SDS011;4490;49.072;8.804;2023-09-19T14:53:38;1.92;;;1.58;;
8909;SDS011;4490;49.072;8.804;2023-09-19T14:56:06;3.47;;;1.60;;
8909;SDS011;4490;49.072;8.804;2023-09-19T14:58:33;2.63;;;1.63;;
8909;SDS011;4490;49.072;8.804;2023-09-19T15:03:33;2.55;;;1.90;;
8909;SDS011;4490;49.072;8.804;2023-09-19T15:06:00;1.70;;;1.60;;
8909;SDS011;4490;49.072;8.804;2023-09-19T15:08:27;8.27;;;1.60;;
8909;SDS011;4490;49.072;8.804;2023-09-19T15:10:53;2.33;;;1.52;;
8909;SDS011;4490;49.072;8.804;2023-09-19T15:13:19;2.35;;;1.60;;
8909;SDS011;4490;49.072;8.804;2023-09-19T15:15:45;1.50;;;1.40;;
8909;SDS011;4490;49.072;8.804;2023-09-19T15:18:13;1.55;;;1.40;;
8909;SDS011;4490;49.072;8.804;2023-09-19T15:20:45;1.73;;;1.20;;
8909;SDS011;4490;49.072;8.804;2023-09-19T15:23:12;1.63;;;1.52;;
8909;SDS011;4490;49.072;8.804;2023-09-19T15:25:38;2.33;;;1.38;;
8909;SDS011;4490;49.072;8.804;2023-09-19T15:28:05;1.50;;;1.40;;
8909;SDS011;4490;49.072;8.804;2023-09-19T15:30:37;2.20;;;1.70;;
8909;SDS011;4490;49.072;8.804;2023-09-19T15:33:03;2.13;;;1.65;;
8909;SDS011;4490;49.072;8.804;2023-09-19T15:35:29;1.88;;;1.52;;
8909;SDS011;4490;49.072;8.804;2023-09-19T15:37:54;1.90;;;1.48;;
8909;SDS011;4490;49.072;8.804;2023-09-19T15:40:21;1.98;;;1.35;;
8909;SDS011;4490;49.072;8.804;2023-09-19T15:42:49;2.38;;;1.63;;
8909;SDS011;4490;49.072;8.804;2023-09-19T15:45:15;1.85;;;1.40;;
8909;SDS011;4490;49.072;8.804;2023-09-19T15:47:41;1.60;;;1.50;;
8909;SDS011;4490;49.072;8.804;2023-09-19T15:50:08;2.03;;;1.50;;
8909;SDS011;4490;49.072;8.804;2023-09-19T15:52:40;1.80;;;1.30;;
8909;SDS011;4490;49.072;8.804;2023-09-19T15:55:07;1.95;;;1.33;;
8909;SDS011;4490;49.072;8.804;2023-09-19T15:57:34;2.88;;;1.58;;
8909;SDS011;4490;49.072;8.804;2023-09-19T16:00:03;3.15;;;1.70;;
8909;SDS011;4490;49.072;8.804;2023-09-19T16:02:38;1.48;;;1.30;;
8909;SDS011;4490;49.072;8.804;2023-09-19T16:05:04;1.75;;;1.48;;
8909;SDS011;4490;49.072;8.804;2023-09-19T16:07:30;1.40;;;1.30;;
8909;SDS011;4490;49.072;8.804;2023-09-19T16:09:56;1.50;;;1.40;;
8909;SDS011;4490;49.072;8.804;2023-09-19T16:12:24;3.15;;;1.30;;
8909;SDS011;4490;49.072;8.804;2023-09-19T16:14:49;1.60;;;1.50;;
8909;SDS011;4490;49.072;8.804;2023-09-19T16:17:15;3.67;;;1.70;;
8909;SDS011;4490;49.072;8.804;2023-09-19T16:19:41;1.70;;;1.58;;
8909;SDS011;4490;49.072;8.804;2023-09-19T16:22:08;2.30;;;1.38;;
8909;SDS011;4490;49.072;8.804;2023-09-19T16:24:34;2.15;;;1.52;;
8909;SDS011;4490;49.072;8.804;2023-09-19T16:27:00;2.00;;;1.80;;
8909;SDS011;4490;49.072;8.804;2023-09-19T16:29:26;1.67;;;1.58;;
8909;SDS011;4490;49.072;8.804;2023-09-19T16:31:51;2.42;;;1.48;;
8909;SDS011;4490;49.072;8.804;2023-09-19T16:34:17;2.92;;;1.50;;